Terminal Aerodrome Forecast
Issued by NWS

Home | Current Version | Previous Version | Text Only | Print | Product List | Glossary On
Versions: 1 2 3 4 5 6 7 8 9 10 11 12 13 14 15
018
FTUS43 KJKL 240520
TAFSME
TAF
KSME 240520Z 2406/2506 18004KT P6SM SCT150 WS020/19040KT
     FM241400 19007KT P6SM BKN050
     FM241800 20010G15KT P6SM SCT050 BKN250
     FM250100 18006KT P6SM BKN250=

USA.gov is the U.S. government's official web portal to all federal, state and local government web resources and services.